Barcelona, Spain
Current Conditions -  °F | °C
As of 5:00 AM on Thursday 23 Oct 2014 (Local Time) from LEBL Reporting Station
Few Clouds Few Clouds  
Wind Chill: 59°   Ceiling: Unl
Heat Index: 59°   Visibility: 6mi
Dew Point: 48°   Wind: 8mph
Humidity: 67%   Direction: 330°NNW
Pressure: 30.18"   Gusts: NA
Location:  41.39°N, 2.17°E
Report Text: LEBL 230300Z 33007KT 9999 FEW025 15/09 Q1022 NOSIG
Loading
Personal Weather Stations






























Interactive Weather Map
Tropical Storm Tracking
New forecast layout! Learn more

10-Day Weather Forecast

Advertisements
Track Severe Weather on mobile